createdAt,value
2023-02-23T00:01:55.002Z,79.86
2023-02-23T00:04:24.099Z,80.23
2023-02-23T00:06:53.609Z,80.60
2023-02-23T00:09:24.390Z,80.23
2023-02-23T00:11:55.887Z,79.83
2023-02-23T00:14:27.489Z,80.03
2023-02-23T00:16:56.055Z,80.40
2023-02-23T00:19:25.780Z,80.23
2023-02-23T00:21:54.820Z,80.77
2023-02-23T00:24:26.993Z,81.00
2023-02-23T00:26:56.871Z,80.68
2023-02-23T00:29:26.076Z,80.80
2023-02-23T00:31:56.193Z,80.64
2023-02-23T00:34:24.442Z,81.34
2023-02-23T00:36:55.333Z,81.23
2023-02-23T00:39:25.287Z,81.17
2023-02-23T00:41:53.867Z,81.11
2023-02-23T00:44:24.718Z,80.82
2023-02-23T00:46:53.946Z,81.43
2023-02-23T00:49:23.616Z,81.70
2023-02-23T00:51:52.994Z,81.53
2023-02-23T00:54:23.083Z,81.26
2023-02-23T00:56:51.658Z,81.09
2023-02-23T00:59:20.912Z,81.04
2023-02-23T01:01:50.559Z,81.07
2023-02-23T01:04:23.494Z,81.22
2023-02-23T01:06:52.236Z,81.34
2023-02-23T01:09:27.999Z,81.09
2023-02-23T01:11:57.742Z,81.11
2023-02-23T01:14:26.297Z,81.94
2023-02-23T01:16:56.048Z,82.20
2023-02-23T01:19:24.104Z,82.14
2023-02-23T01:21:52.411Z,82.16
2023-02-23T01:24:20.451Z,82.95
2023-02-23T01:26:48.779Z,82.20
2023-02-23T01:29:18.860Z,82.36
2023-02-23T01:31:51.223Z,82.24
2023-02-23T01:34:22.745Z,82.40
2023-02-23T01:36:52.370Z,81.94
2023-02-23T01:39:22.324Z,81.79
2023-02-23T01:41:52.656Z,82.04
2023-02-23T01:45:00.788Z,81.64
2023-02-23T01:47:30.010Z,81.32
2023-02-23T01:50:02.160Z,81.43
2023-02-23T01:52:30.352Z,81.70
2023-02-23T01:54:58.583Z,81.56
2023-02-23T01:57:27.215Z,81.74
2023-02-23T01:59:56.495Z,81.40
2023-02-23T02:02:33.178Z,81.85
2023-02-23T02:05:08.539Z,82.00
2023-02-23T02:07:39.653Z,82.10
2023-02-23T02:10:27.072Z,82.07
2023-02-23T02:12:58.070Z,82.29
2023-02-23T02:15:32.891Z,82.16
2023-02-23T02:18:12.546Z,82.25
2023-02-23T02:21:06.170Z,82.40
2023-02-23T02:24:08.290Z,83.32
2023-02-23T02:26:50.981Z,82.79
2023-02-23T02:29:47.895Z,82.58
2023-02-23T02:32:48.772Z,82.42
2023-02-23T02:35:45.053Z,82.52
2023-02-23T02:38:23.355Z,82.87
2023-02-23T02:40:58.277Z,82.35
2023-02-23T02:43:36.066Z,82.16
2023-02-23T02:46:12.294Z,82.27
2023-02-23T02:48:49.459Z,82.18
2023-02-23T02:51:23.634Z,82.01
2023-02-23T02:54:00.280Z,82.06
2023-02-23T02:56:28.673Z,82.09
2023-02-23T02:58:57.658Z,81.51
2023-02-23T03:01:44.386Z,81.18
2023-02-23T03:04:42.553Z,81.33
2023-02-23T03:07:38.883Z,81.26
2023-02-23T03:10:33.568Z,80.95
2023-02-23T03:13:30.460Z,81.00
2023-02-23T03:16:23.262Z,81.50
2023-02-23T03:19:21.851Z,81.14
2023-02-23T03:22:12.849Z,80.84
2023-02-23T03:25:02.701Z,80.56
2023-02-23T03:28:03.191Z,81.08
2023-02-23T03:30:58.156Z,80.70
2023-02-23T03:33:53.475Z,81.26
2023-02-23T03:36:45.085Z,81.18
2023-02-23T03:39:38.587Z,80.93
2023-02-23T03:42:28.764Z,81.22
2023-02-23T03:45:17.861Z,81.02
2023-02-23T03:48:05.705Z,80.86
2023-02-23T03:50:56.546Z,80.88
2023-02-23T03:53:47.815Z,81.31
2023-02-23T03:56:37.293Z,81.17
2023-02-23T03:59:25.351Z,81.51
2023-02-23T04:02:14.371Z,81.36
2023-02-23T04:05:03.171Z,81.66
2023-02-23T04:07:49.780Z,80.83
2023-02-23T04:10:36.668Z,80.66
2023-02-23T04:13:15.864Z,80.71
2023-02-23T04:15:52.817Z,81.36
2023-02-23T04:18:25.969Z,81.63
2023-02-23T04:20:54.843Z,81.59
2023-02-23T04:23:24.153Z,81.27
2023-02-23T04:25:52.582Z,81.79
2023-02-23T04:28:21.282Z,82.29
2023-02-23T04:30:49.529Z,81.75
2023-02-23T04:33:17.609Z,81.76
2023-02-23T04:35:47.028Z,81.49
2023-02-23T04:38:15.338Z,81.58
2023-02-23T04:40:43.455Z,81.29
2023-02-23T04:43:13.630Z,81.39
2023-02-23T04:45:42.100Z,81.35
2023-02-23T04:48:10.205Z,81.48
2023-02-23T04:50:38.369Z,81.47
2023-02-23T04:53:07.977Z,81.27
2023-02-23T04:55:36.026Z,81.08
2023-02-23T04:58:04.516Z,81.71
2023-02-23T05:00:34.182Z,81.96
2023-02-23T05:03:02.770Z,81.48
2023-02-23T05:05:30.815Z,81.46
2023-02-23T05:07:58.908Z,82.04
2023-02-23T05:10:29.075Z,82.01
2023-02-23T05:12:57.251Z,81.99
2023-02-23T05:15:25.256Z,81.52
2023-02-23T05:17:53.749Z,81.70
2023-02-23T05:20:21.823Z,81.50
2023-02-23T05:22:49.882Z,81.79
2023-02-23T05:25:17.965Z,82.26
2023-02-23T05:27:47.386Z,82.40
2023-02-23T05:30:15.645Z,82.43
2023-02-23T05:32:44.068Z,82.78
2023-02-23T05:35:12.931Z,82.52
2023-02-23T05:37:41.083Z,82.45
2023-02-23T05:40:10.450Z,82.39
2023-02-23T05:42:39.303Z,82.53
2023-02-23T05:45:09.641Z,82.33
2023-02-23T05:47:39.031Z,82.57
2023-02-23T05:50:08.688Z,82.69
2023-02-23T05:52:39.104Z,82.28
2023-02-23T05:55:08.368Z,82.45
2023-02-23T05:57:36.622Z,82.50
2023-02-23T06:00:06.638Z,82.71
2023-02-23T06:02:36.566Z,82.95
2023-02-23T06:05:06.179Z,83.46
2023-02-23T06:07:34.301Z,83.12
2023-02-23T06:10:02.431Z,83.18
2023-02-23T06:12:30.502Z,83.03
2023-02-23T06:14:58.575Z,83.11
2023-02-23T06:17:26.782Z,82.97
2023-02-23T06:19:56.480Z,82.49
2023-02-23T06:22:24.591Z,82.54
2023-02-23T06:24:52.634Z,82.98
2023-02-23T06:27:20.661Z,82.99
2023-02-23T06:29:48.740Z,83.07
2023-02-23T06:32:16.876Z,83.03
2023-02-23T06:34:48.861Z,83.00
2023-02-23T06:37:18.373Z,82.57
2023-02-23T06:39:46.656Z,82.08
2023-02-23T06:42:15.458Z,82.09
2023-02-23T06:44:43.667Z,81.86
2023-02-23T06:47:12.087Z,81.78
2023-02-23T06:49:40.870Z,82.13
2023-02-23T06:52:09.647Z,82.15
2023-02-23T06:54:40.080Z,82.13
2023-02-23T06:57:08.425Z,81.60
2023-02-23T06:59:37.604Z,81.96
2023-02-23T07:02:05.868Z,81.38
2023-02-23T07:04:34.491Z,81.08
2023-02-23T07:07:02.740Z,81.05
2023-02-23T07:09:30.858Z,80.76
2023-02-23T07:12:00.828Z,80.41
2023-02-23T07:14:28.947Z,80.80
2023-02-23T07:16:57.061Z,80.80
2023-02-23T07:19:25.120Z,80.40
2023-02-23T07:21:53.627Z,80.59
2023-02-23T07:24:22.015Z,80.31
2023-02-23T07:26:50.389Z,79.94
2023-02-23T07:29:20.039Z,80.13
2023-02-23T07:31:50.144Z,80.47
2023-02-23T07:34:18.417Z,79.81
2023-02-23T07:36:46.435Z,79.61
2023-02-23T07:39:14.678Z,79.27
2023-02-23T07:41:42.745Z,78.94
2023-02-23T07:44:20.955Z,78.14
2023-02-23T07:46:49.622Z,77.88
2023-02-23T07:49:17.804Z,77.40
2023-02-23T07:51:45.891Z,77.73
2023-02-23T07:54:15.027Z,77.72
2023-02-23T07:56:43.511Z,77.49
2023-02-23T07:59:11.594Z,77.59
2023-02-23T08:01:41.177Z,77.86
2023-02-23T08:04:09.341Z,77.34
2023-02-23T08:06:37.822Z,77.03
2023-02-23T08:09:06.160Z,77.32
2023-02-23T08:11:34.171Z,77.55
2023-02-23T08:14:02.245Z,76.82
2023-02-23T08:16:32.312Z,76.12
2023-02-23T08:19:02.402Z,75.99
2023-02-23T08:21:31.548Z,75.75
2023-02-23T08:23:59.803Z,75.35
2023-02-23T08:26:28.123Z,75.67
2023-02-23T08:28:56.801Z,75.37
2023-02-23T08:31:26.313Z,74.45
2023-02-23T08:33:54.679Z,75.37
2023-02-23T08:36:24.351Z,75.93
2023-02-23T08:38:54.274Z,75.83
2023-02-23T08:41:22.970Z,74.92
2023-02-23T08:43:51.651Z,75.08
2023-02-23T08:46:20.664Z,74.74
2023-02-23T08:48:48.758Z,74.30
2023-02-23T08:51:17.074Z,73.88
2023-02-23T08:53:46.566Z,73.91
2023-02-23T08:56:15.407Z,74.02
2023-02-23T08:58:44.139Z,74.39
2023-02-23T09:01:18.357Z,73.86
2023-02-23T09:03:46.629Z,73.48
2023-02-23T09:06:16.783Z,73.24
2023-02-23T09:08:46.290Z,72.57
2023-02-23T09:11:14.432Z,73.44
2023-02-23T09:13:42.505Z,72.59
2023-02-23T09:16:10.681Z,72.97
2023-02-23T09:18:39.519Z,73.01
2023-02-23T09:21:10.869Z,72.94
2023-02-23T09:23:39.300Z,73.02
2023-02-23T09:26:09.947Z,72.62
2023-02-23T09:28:40.770Z,72.65
2023-02-23T09:31:10.235Z,72.28
2023-02-23T09:33:38.508Z,71.82
2023-02-23T09:36:07.824Z,71.65
2023-02-23T09:38:36.005Z,71.35
2023-02-23T09:41:04.307Z,70.56
2023-02-23T09:43:38.941Z,70.21
2023-02-23T09:46:15.281Z,70.19
2023-02-23T09:48:44.121Z,69.80
2023-02-23T09:51:18.802Z,69.42
2023-02-23T09:53:51.079Z,69.44
2023-02-23T09:56:24.266Z,69.26
2023-02-23T09:58:54.252Z,69.91
2023-02-23T10:01:55.187Z,69.40
2023-02-23T10:04:25.588Z,69.05
2023-02-23T10:07:00.904Z,68.69
2023-02-23T10:09:52.419Z,69.36
2023-02-23T10:12:28.790Z,69.17
2023-02-23T10:15:20.051Z,68.94
2023-02-23T10:18:02.956Z,68.27
2023-02-23T10:20:44.502Z,67.98
2023-02-23T10:23:16.569Z,67.68
2023-02-23T10:25:49.368Z,68.10
2023-02-23T10:28:18.898Z,68.15
2023-02-23T10:30:49.894Z,68.25
2023-02-23T10:33:23.968Z,68.29
2023-02-23T10:36:11.105Z,67.81
2023-02-23T10:38:41.522Z,68.67
2023-02-23T10:41:13.706Z,67.63
2023-02-23T10:43:43.015Z,67.56
2023-02-23T10:46:22.315Z,67.26
2023-02-23T10:48:52.146Z,66.99
2023-02-23T10:51:26.199Z,66.10
2023-02-23T10:53:54.597Z,66.33
2023-02-23T10:56:25.040Z,66.07
2023-02-23T10:58:55.718Z,66.55
2023-02-23T11:01:46.264Z,65.62
2023-02-23T11:04:24.075Z,66.30
2023-02-23T11:06:53.225Z,64.85
2023-02-23T11:09:43.265Z,65.71
2023-02-23T11:12:22.017Z,65.29
2023-02-23T11:14:52.177Z,65.22
2023-02-23T11:17:31.842Z,64.72
2023-02-23T11:20:05.961Z,64.89
2023-02-23T11:22:38.387Z,65.02
2023-02-23T11:25:18.691Z,64.15
2023-02-23T11:27:51.591Z,64.16
2023-02-23T11:30:24.650Z,64.20
2023-02-23T11:32:57.619Z,64.70
2023-02-23T11:35:31.992Z,64.86
2023-02-23T11:38:00.186Z,64.82
2023-02-23T11:40:31.857Z,64.95
2023-02-23T11:43:09.988Z,64.93
2023-02-23T11:45:45.918Z,64.81
2023-02-23T11:48:23.467Z,64.95
2023-02-23T11:50:52.929Z,63.93
2023-02-23T11:53:29.644Z,63.61
2023-02-23T11:56:02.813Z,64.23
2023-02-23T11:58:38.901Z,64.20
2023-02-23T12:01:13.493Z,63.43
2023-02-23T12:03:47.978Z,63.26
2023-02-23T12:06:30.651Z,62.34
2023-02-23T12:09:05.709Z,62.04
2023-02-23T12:11:40.762Z,62.81
2023-02-23T12:14:17.570Z,61.88
2023-02-23T12:16:50.354Z,61.60
2023-02-23T12:19:28.926Z,61.10
2023-02-23T12:22:05.376Z,60.49
2023-02-23T12:24:42.091Z,60.01
2023-02-23T12:27:15.737Z,59.76
2023-02-23T12:29:57.237Z,58.86
2023-02-23T12:32:29.371Z,58.95
2023-02-23T12:35:03.478Z,58.67
2023-02-23T12:37:39.783Z,58.78
2023-02-23T12:40:17.301Z,58.92
2023-02-23T12:42:55.231Z,59.71
2023-02-23T12:45:29.248Z,60.32
2023-02-23T12:48:16.905Z,60.76
2023-02-23T12:50:53.064Z,60.59
2023-02-23T12:53:24.634Z,60.36
2023-02-23T12:56:08.224Z,60.59
2023-02-23T12:58:42.684Z,60.59
2023-02-23T13:01:14.737Z,60.51
2023-02-23T13:04:14.149Z,60.55
2023-02-23T13:06:54.647Z,61.20
2023-02-23T13:09:37.164Z,61.19
2023-02-23T13:12:23.258Z,61.46
2023-02-23T13:14:57.114Z,61.25
2023-02-23T13:17:36.025Z,60.71
2023-02-23T13:20:12.780Z,60.46
2023-02-23T13:22:49.424Z,60.73
2023-02-23T13:25:33.986Z,60.47
2023-02-23T13:28:03.270Z,60.40
2023-02-23T13:30:33.610Z,59.92
2023-02-23T13:33:05.490Z,59.99
2023-02-23T13:35:38.486Z,60.54
2023-02-23T13:38:18.463Z,60.25
2023-02-23T13:40:50.005Z,60.16
2023-02-23T13:43:24.159Z,60.85
2023-02-23T13:46:15.791Z,60.32
2023-02-23T13:48:57.394Z,60.29
2023-02-23T13:51:36.155Z,60.05
2023-02-23T13:54:24.404Z,59.92
2023-02-23T13:56:56.423Z,60.03
2023-02-23T13:59:28.398Z,60.65
2023-02-23T14:01:57.978Z,60.69
2023-02-23T14:04:28.967Z,60.15
2023-02-23T14:07:02.166Z,60.59
2023-02-23T14:09:33.932Z,61.08
2023-02-23T14:12:17.066Z,60.63
2023-02-23T14:14:46.924Z,60.67
2023-02-23T14:17:42.569Z,60.24
2023-02-23T14:20:35.635Z,60.36
2023-02-23T14:23:35.524Z,60.18
2023-02-23T14:26:17.830Z,60.43
2023-02-23T14:28:50.476Z,60.69
2023-02-23T14:31:26.006Z,60.75
2023-02-23T14:34:02.114Z,61.09
2023-02-23T14:36:45.748Z,61.51
2023-02-23T14:39:23.631Z,61.10
2023-02-23T14:41:56.735Z,61.41
2023-02-23T14:44:31.191Z,61.51
2023-02-23T14:47:04.161Z,61.40
2023-02-23T14:49:36.985Z,62.14
2023-02-23T14:52:09.915Z,61.66
2023-02-23T14:54:40.228Z,61.81
2023-02-23T14:57:20.299Z,61.92
2023-02-23T14:59:54.916Z,62.13
2023-02-23T15:02:29.568Z,62.58
2023-02-23T15:04:58.470Z,62.67
2023-02-23T15:07:32.418Z,63.29
2023-02-23T15:10:02.469Z,63.36
2023-02-23T15:12:38.013Z,63.61
2023-02-23T15:15:14.246Z,63.89
2023-02-23T15:17:48.082Z,63.86
2023-02-23T15:20:19.808Z,64.34
2023-02-23T15:22:50.090Z,63.91
2023-02-23T15:25:22.096Z,63.88
2023-02-23T15:27:52.315Z,63.90
2023-02-23T15:30:23.144Z,64.06
2023-02-23T15:33:01.418Z,64.02
2023-02-23T15:35:31.556Z,64.69
2023-02-23T15:38:13.920Z,65.03
2023-02-23T15:40:54.179Z,65.35
2023-02-23T15:43:24.794Z,64.78
2023-02-23T15:45:55.579Z,65.20
2023-02-23T15:48:27.972Z,65.64
2023-02-23T15:50:58.747Z,65.88
2023-02-23T15:53:31.599Z,66.36
2023-02-23T15:56:12.680Z,66.98
2023-02-23T15:58:56.517Z,67.06
2023-02-23T16:01:27.420Z,67.44
2023-02-23T16:04:03.099Z,67.34
2023-02-23T16:06:36.705Z,67.58
2023-02-23T16:09:22.113Z,68.05
2023-02-23T16:11:52.960Z,67.97
2023-02-23T16:14:24.709Z,67.95
2023-02-23T16:17:09.897Z,68.63
2023-02-23T16:19:41.764Z,68.75
2023-02-23T16:22:22.413Z,69.35
2023-02-23T16:24:59.491Z,69.31
2023-02-23T16:27:29.495Z,68.96
2023-02-23T16:30:01.665Z,69.30
2023-02-23T16:32:39.646Z,69.38
2023-02-23T16:35:17.267Z,69.17
2023-02-23T16:37:58.269Z,69.49
2023-02-23T16:40:26.680Z,69.45
2023-02-23T16:42:59.086Z,69.42
2023-02-23T16:45:29.837Z,69.16
2023-02-23T16:48:02.233Z,69.36
2023-02-23T16:50:30.968Z,69.50
2023-02-23T16:52:59.026Z,69.55
2023-02-23T16:55:29.228Z,69.77
2023-02-23T16:58:00.329Z,70.03
2023-02-23T17:00:32.021Z,70.06
2023-02-23T17:03:01.505Z,70.04
2023-02-23T17:05:30.624Z,70.38
2023-02-23T17:07:59.229Z,70.42
2023-02-23T17:10:31.407Z,70.49
2023-02-23T17:13:02.624Z,70.59
2023-02-23T17:15:35.825Z,70.59
2023-02-23T17:18:05.078Z,70.69
2023-02-23T17:20:33.353Z,70.30
2023-02-23T17:23:03.086Z,70.41
2023-02-23T17:25:31.480Z,70.28
2023-02-23T17:28:01.210Z,70.32
2023-02-23T17:30:32.093Z,70.22
2023-02-23T17:33:02.241Z,70.33
2023-02-23T17:35:32.702Z,70.11
2023-02-23T17:38:01.384Z,70.18
2023-02-23T17:40:29.554Z,70.18
2023-02-23T17:42:58.833Z,70.15
2023-02-23T17:45:27.508Z,69.97
2023-02-23T17:47:57.664Z,70.12
2023-02-23T17:50:27.785Z,69.83
2023-02-23T17:52:56.485Z,70.14
2023-02-23T17:55:25.191Z,69.85
2023-02-23T17:57:53.241Z,69.81
2023-02-23T18:00:22.176Z,69.91
2023-02-23T18:02:51.680Z,70.06
2023-02-23T18:05:21.595Z,70.16
2023-02-23T18:07:49.637Z,70.14
2023-02-23T18:10:17.923Z,69.83
2023-02-23T18:12:46.129Z,69.83
2023-02-23T18:15:14.313Z,69.84
2023-02-23T18:17:42.522Z,69.92
2023-02-23T18:20:15.060Z,70.79
2023-02-23T18:22:45.290Z,72.30
2023-02-23T18:25:22.069Z,72.82
2023-02-23T18:27:54.082Z,74.48
2023-02-23T18:30:24.701Z,74.99
2023-02-23T18:32:56.412Z,74.86
2023-02-23T18:35:24.662Z,74.48
2023-02-23T18:37:54.157Z,74.01
2023-02-23T18:40:24.037Z,73.58
2023-02-23T18:42:52.170Z,72.60
2023-02-23T18:45:20.306Z,72.55
2023-02-23T18:47:48.843Z,72.10
2023-02-23T18:50:19.433Z,72.13
2023-02-23T18:52:50.948Z,71.70
2023-02-23T18:55:22.289Z,71.79
2023-02-23T18:57:52.777Z,71.56
2023-02-23T19:00:21.918Z,71.40
2023-02-23T19:02:50.698Z,71.48
2023-02-23T19:05:21.732Z,71.49
2023-02-23T19:07:50.262Z,71.42
2023-02-23T19:10:18.466Z,71.34
2023-02-23T19:12:47.937Z,71.22
2023-02-23T19:15:16.091Z,71.27
2023-02-23T19:17:46.346Z,71.24
2023-02-23T19:20:14.917Z,71.38
2023-02-23T19:22:43.231Z,71.49
2023-02-23T19:25:15.433Z,71.81
2023-02-23T19:27:44.384Z,71.74
2023-02-23T19:30:14.942Z,71.44
2023-02-23T19:32:44.274Z,71.27
2023-02-23T19:35:15.810Z,71.50
2023-02-23T19:37:51.064Z,71.63
2023-02-23T19:40:22.954Z,71.43
2023-02-23T19:42:53.284Z,71.60
2023-02-23T19:45:25.941Z,71.51
2023-02-23T19:47:54.783Z,71.39
2023-02-23T19:50:23.179Z,71.35
2023-02-23T19:52:51.537Z,71.67
2023-02-23T19:55:21.229Z,71.26
2023-02-23T19:57:49.359Z,71.40
2023-02-23T20:00:18.254Z,71.32
2023-02-23T20:02:54.994Z,72.15
2023-02-23T20:05:25.702Z,71.91
2023-02-23T20:07:54.685Z,71.93
2023-02-23T20:10:25.826Z,71.58
2023-02-23T20:12:54.282Z,71.55
2023-02-23T20:15:22.861Z,71.82
2023-02-23T20:17:52.473Z,71.93
2023-02-23T20:20:25.553Z,72.31
2023-02-23T20:22:55.447Z,72.04
2023-02-23T20:25:24.328Z,71.93
2023-02-23T20:27:52.558Z,72.17
2023-02-23T20:30:21.000Z,71.83
2023-02-23T20:32:49.884Z,72.00
2023-02-23T20:35:20.153Z,72.20
2023-02-23T20:37:48.309Z,71.91
2023-02-23T20:40:18.570Z,71.98
2023-02-23T20:42:48.109Z,72.07
2023-02-23T20:45:17.735Z,72.00
2023-02-23T20:47:46.937Z,71.99
2023-02-23T20:50:15.650Z,72.39
2023-02-23T20:52:45.996Z,72.32
2023-02-23T20:55:19.351Z,72.80
2023-02-23T20:57:48.143Z,73.21
2023-02-23T21:00:32.169Z,72.79
2023-02-23T21:03:02.050Z,72.97
2023-02-23T21:05:32.285Z,72.74
2023-02-23T21:08:04.174Z,73.22
2023-02-23T21:10:33.307Z,73.17
2023-02-23T21:13:01.917Z,73.58
2023-02-23T21:15:31.479Z,73.67
2023-02-23T21:18:00.330Z,73.53
2023-02-23T21:20:28.706Z,73.85
2023-02-23T21:22:57.314Z,73.92
2023-02-23T21:25:28.389Z,73.61
2023-02-23T21:27:56.956Z,73.81
2023-02-23T21:30:28.675Z,73.74
2023-02-23T21:32:59.612Z,73.96
2023-02-23T21:35:27.813Z,73.85
2023-02-23T21:37:56.924Z,74.30
2023-02-23T21:40:26.520Z,74.22
2023-02-23T21:42:54.614Z,74.09
2023-02-23T21:45:22.833Z,74.40
2023-02-23T21:47:51.014Z,75.09
2023-02-23T21:50:20.597Z,75.33
2023-02-23T21:52:53.190Z,74.76
2023-02-23T21:55:22.326Z,74.75
2023-02-23T21:57:52.873Z,74.41
2023-02-23T22:00:23.024Z,73.85
2023-02-23T22:02:52.161Z,74.23
2023-02-23T22:05:23.264Z,73.91
2023-02-23T22:07:52.780Z,74.20
2023-02-23T22:10:23.310Z,74.27
2023-02-23T22:12:56.143Z,74.33
2023-02-23T22:15:27.997Z,74.79
2023-02-23T22:17:57.270Z,75.46
2023-02-23T22:20:26.303Z,76.49
2023-02-23T22:22:54.422Z,77.44
2023-02-23T22:25:22.588Z,77.45
2023-02-23T22:27:52.021Z,77.81
2023-02-23T22:30:22.483Z,77.94
2023-02-23T22:32:51.167Z,77.93
2023-02-23T22:35:19.607Z,77.42
2023-02-23T22:37:47.795Z,77.46
2023-02-23T22:40:17.176Z,77.12
2023-02-23T22:42:48.382Z,77.40
2023-02-23T22:45:19.022Z,77.22
2023-02-23T22:47:47.265Z,76.94
2023-02-23T22:50:18.183Z,76.70
2023-02-23T22:52:46.941Z,76.92
2023-02-23T22:55:15.181Z,76.95
2023-02-23T22:57:44.007Z,76.99
2023-02-23T23:00:15.799Z,76.91
2023-02-23T23:02:45.545Z,76.90
2023-02-23T23:05:14.545Z,76.92
2023-02-23T23:07:46.788Z,77.24
2023-02-23T23:10:15.931Z,77.45
2023-02-23T23:12:44.339Z,77.64
2023-02-23T23:15:17.421Z,77.31
2023-02-23T23:17:49.426Z,77.52
2023-02-23T23:20:23.014Z,77.34
2023-02-23T23:22:51.219Z,77.40
2023-02-23T23:25:23.105Z,77.22
2023-02-23T23:27:53.694Z,77.51
2023-02-23T23:30:26.166Z,77.83
2023-02-23T23:32:55.950Z,77.99
2023-02-23T23:35:26.121Z,77.69
2023-02-23T23:37:54.142Z,77.58
2023-02-23T23:40:24.525Z,78.04
2023-02-23T23:42:53.283Z,77.96
2023-02-23T23:45:24.313Z,78.52
2023-02-23T23:47:52.517Z,78.92
2023-02-23T23:50:26.828Z,78.64
2023-02-23T23:52:55.517Z,78.20
2023-02-23T23:55:23.560Z,78.64
2023-02-23T23:57:52.225Z,78.44
